Decoded Metar for PAKH ( in _UNIDENTIFIED) (IATA:) | Meteo·Mobile Aviation Weather
aviador You're here:

PAKH Decoded Metar

in _UNIDENTIFIED
Report Time2019-01-20 10:56:00
UTC Time2019-01-20 11:49:15
Flight Rules mvfr MVFR
Wind360° at 05 kt
W.Decomp.*RWY 04: 2.6 kt HW 4.2 kt LCW
Visibility9999 m
Phenomena:N/A
Clouds:Overcast 021 Hf
Expected CloudBase > 400 ft AGL from Temp-Dew spread
Ceiling2,100 ft
Temp-3°C (ISA -18)
Dew Point-4°C (93% RH)
AAT-7.3°C
QNH1006 hPa
Density Alt-1,854 ft
Elevation46 ft
Report Wrong Elevation
Raw Report
PAKH 201056Z AUTO 36005KT 10SM OVC021 M03/M04 A2970 RMK AO2
SNB0959E19 SLP058 P0000 T10281039 FZRANO $=

Extra information for PAKH:More info

Social comments